Time;durP1;ratioP1;P1;durP2;ratioP2;P2;SDS_P1;SDS_P2;PMS_P1;PMS_P2;Temp;Humidity;BMP_temperature;BMP_pressure;BME280_temperature;BME280_humidity;BME280_pressure;Samples;Min_cycle;Max_cycle;Signal;HPM_P1;HPM_P2
2021/01/02 00:01:15;;;;;;;21.08;9.55;;;;;;;-0.55;91.36;98303.59;5075361;28;20070;-75
2021/01/02 00:04:43;;;;;;;23.33;10.18;;;;;;;-0.61;91.27;98304.19;5075131;28;20094;-74
2021/01/02 00:07:45;;;;;;;20.45;9.30;;;;;;;-0.75;91.23;98308.97;5013714;28;20040;-74
2021/01/02 00:10:15;;;;;;;22.05;9.20;;;;;;;-0.79;91.65;98296.94;5056523;28;20032;-73
2021/01/02 00:13:04;;;;;;;22.23;9.95;;;;;;;-0.80;91.33;98294.44;5072263;28;20020;-73
2021/01/02 00:16:06;;;;;;;19.63;9.75;;;;;;;-0.99;91.68;98282.91;5073919;28;20028;-75
2021/01/02 00:18:36;;;;;;;21.05;10.23;;;;;;;-0.85;91.95;98302.00;5075552;28;20067;-75
2021/01/02 00:21:16;;;;;;;23.13;10.02;;;;;;;-1.11;92.04;98266.28;5069420;28;20032;-75
2021/01/02 00:23:50;;;;;;;19.30;9.07;;;;;;;-0.98;92.25;98302.31;5063219;28;20019;-75
2021/01/02 00:26:45;;;;;;;21.73;10.35;;;;;;;-1.17;92.08;98284.59;5057040;28;20025;-75
2021/01/02 00:29:24;;;;;;;23.45;9.80;;;;;;;-1.07;92.17;98292.53;5042607;28;20021;-74
2021/01/02 00:32:02;;;;;;;23.67;10.23;;;;;;;-0.99;92.55;98305.97;5057723;28;20035;-74
2021/01/02 00:35:03;;;;;;;18.45;10.18;;;;;;;-1.00;92.33;98305.09;5065127;28;20701;-74
2021/01/02 00:37:59;;;;;;;19.02;9.82;;;;;;;-0.96;92.23;98295.03;5029193;28;20050;-75
2021/01/02 00:40:25;;;;;;;21.38;9.93;;;;;;;-0.65;91.56;98298.31;5078767;28;20478;-75
2021/01/02 00:42:50;;;;;;;23.77;9.82;;;;;;;-0.75;91.84;98298.34;5094222;28;20020;-75
2021/01/02 00:45:20;;;;;;;21.02;10.43;;;;;;;-0.93;91.79;98284.13;5081852;28;20032;-75
2021/01/02 00:47:47;;;;;;;22.33;10.73;;;;;;;-0.88;92.12;98297.81;5084288;28;20016;-75
2021/01/02 00:50:14;;;;;;;23.33;10.43;;;;;;;-1.04;92.39;98284.31;5100013;28;20025;-75
2021/01/02 00:52:54;;;;;;;22.45;10.68;;;;;;;-0.99;92.38;98306.78;5063595;28;20032;-73
2021/01/02 00:55:32;;;;;;;24.02;10.30;;;;;;;-1.00;92.13;98304.25;5069205;28;20029;-73
2021/01/02 00:58:15;;;;;;;22.48;10.80;;;;;;;-0.92;92.24;98309.69;5081755;28;20039;-74
2021/01/02 01:00:42;;;;;;;21.80;10.05;;;;;;;-1.00;92.08;98304.25;5054409;28;20025;-75
2021/01/02 01:03:45;;;;;;;28.75;10.73;;;;;;;-1.04;92.42;98310.84;5072591;28;20036;-75
2021/01/02 01:06:11;;;;;;;24.40;11.52;;;;;;;-1.09;92.22;98310.44;5072626;28;20024;-73
2021/01/02 01:08:42;;;;;;;22.17;10.63;;;;;;;-1.14;92.20;98305.56;5073725;28;20025;-74
2021/01/02 01:11:14;;;;;;;23.08;11.35;;;;;;;-1.19;92.82;98305.97;5061006;28;20033;-74
2021/01/02 01:13:40;;;;;;;24.23;10.88;;;;;;;-1.21;93.17;98317.69;5055464;28;20475;-74
2021/01/02 01:16:07;;;;;;;24.10;10.93;;;;;;;-1.34;93.06;98300.28;5069671;28;20024;-74
2021/01/02 01:18:44;;;;;;;23.88;10.32;;;;;;;-1.32;92.87;98318.69;5068657;28;20103;-74
2021/01/02 01:21:15;;;;;;;24.42;10.13;;;;;;;-1.50;93.30;98301.78;5066407;28;20060;-74
2021/01/02 01:23:51;;;;;;;20.20;10.82;;;;;;;-1.51;92.86;98321.34;5090132;28;20584;-74
2021/01/02 01:26:35;;;;;;;23.05;10.63;;;;;;;-1.61;92.81;98318.69;5073104;28;20383;-74
2021/01/02 01:29:01;;;;;;;24.88;11.57;;;;;;;-1.75;93.45;98298.72;5073542;28;20028;-74
2021/01/02 01:31:43;;;;;;;27.15;11.70;;;;;;;-1.78;93.79;98302.47;5080575;28;20036;-74
2021/01/02 01:34:10;;;;;;;32.00;11.95;;;;;;;-1.62;93.85;98317.84;5082154;28;20029;-75
2021/01/02 01:36:35;;;;;;;24.75;10.68;;;;;;;-1.51;94.06;98322.19;5084814;28;20021;-75
2021/01/02 01:39:05;;;;;;;26.38;11.30;;;;;;;-1.27;93.45;98334.19;5081069;28;20039;-75
2021/01/02 01:41:36;;;;;;;23.48;10.60;;;;;;;-1.21;93.32;98325.66;5091129;28;20025;-76
2021/01/02 01:44:04;;;;;;;26.80;10.90;;;;;;;-1.01;92.87;98332.63;5084488;28;20055;-74
2021/01/02 01:46:33;;;;;;;26.63;11.10;;;;;;;-1.06;92.23;98336.69;5087287;28;20025;-73
2021/01/02 01:49:09;;;;;;;;;;;;;;;-0.98;91.85;98342.13;5080879;28;20032;-73
2021/01/02 01:51:59;;;;;;;26.05;10.85;;;;;;;-0.96;91.83;98342.84;5058305;28;19913;-73
2021/01/02 01:54:55;;;;;;;22.50;9.70;;;;;;;-1.00;91.50;98350.22;5062399;28;20044;-73
2021/01/02 01:57:29;;;;;;;22.67;10.00;;;;;;;-1.13;91.47;98345.25;5067915;28;20028;-73
2021/01/02 01:59:57;;;;;;;25.42;9.75;;;;;;;-1.23;91.72;98341.75;5056785;28;20025;-73
2021/01/02 02:02:46;;;;;;;21.27;9.32;;;;;;;-1.31;91.74;98341.63;5058746;28;20021;-73
2021/01/02 02:05:18;;;;;;;;;;;;;;;-1.38;91.76;98333.34;5061162;28;20024;-73
2021/01/02 02:08:04;;;;;;;22.65;9.05;;;;;;;-1.57;91.94;98343.97;5086274;28;19916;-73
2021/01/02 02:10:31;;;;;;;22.17;10.15;;;;;;;-1.55;92.61;98332.25;5060777;28;20099;-73
2021/01/02 02:12:59;;;;;;;20.25;8.98;;;;;;;-1.67;92.46;98325.38;5072269;28;20028;-73
2021/01/02 02:15:28;;;;;;;19.48;8.88;;;;;;;-1.58;92.06;98347.59;5072818;28;20027;-73
2021/01/02 02:18:05;;;;;;;14.93;6.00;;;;;;;-1.73;91.80;98327.72;5056695;28;20021;-73
2021/01/02 02:20:32;;;;;;;18.17;8.13;;;;;;;-1.69;91.63;98343.25;5073054;28;20028;-73
2021/01/02 02:23:06;;;;;;;18.42;8.13;;;;;;;-1.77;91.90;98343.09;5064609;28;20031;-73
2021/01/02 02:25:56;;;;;;;18.38;8.70;;;;;;;-1.67;91.39;98343.13;5073194;28;20028;-73
2021/01/02 02:28:47;;;;;;;14.38;7.43;;;;;;;-1.57;91.57;98344.81;5052505;28;20040;-73
2021/01/02 02:31:15;;;;;;;12.88;6.68;;;;;;;-1.53;91.33;98347.19;5065299;28;20612;-73
2021/01/02 02:33:53;;;;;;;14.13;7.13;;;;;;;-1.53;91.02;98350.66;5073573;28;20027;-73
2021/01/02 02:36:19;;;;;;;14.13;7.13;;;;;;;-1.68;91.06;98306.94;5073432;28;20032;-73
2021/01/02 02:38:44;;;;;;;15.27;7.10;;;;;;;-1.39;91.49;98346.75;5072196;28;20086;-73
2021/01/02 02:41:10;;;;;;;16.85;6.68;;;;;;;-1.38;90.70;98335.19;5073822;28;20028;-73
2021/01/02 02:43:41;;;;;;;14.02;6.78;;;;;;;-1.27;91.19;98340.34;5065250;28;20497;-73
2021/01/02 02:46:13;;;;;;;13.07;6.50;;;;;;;-1.23;90.70;98341.75;5052578;28;20474;-73
2021/01/02 02:48:46;;;;;;;13.02;7.00;;;;;;;-1.17;90.65;98335.88;5063410;28;20379;-73
2021/01/02 02:51:14;;;;;;;10.93;5.93;;;;;;;-1.25;90.26;98317.16;5052933;28;20021;-74
2021/01/02 02:53:39;;;;;;;12.18;6.55;;;;;;;-1.19;89.83;98340.47;5068632;28;20104;-73
2021/01/02 02:56:05;;;;;;;11.75;5.90;;;;;;;-1.22;90.01;98335.44;5074026;28;20048;-75
2021/01/02 02:58:30;;;;;;;11.70;6.40;;;;;;;-1.11;90.49;98348.56;5055622;28;20021;-75
2021/01/02 03:00:56;;;;;;;11.35;6.13;;;;;;;-1.03;89.52;98339.06;5052805;28;20028;-76
2021/01/02 03:03:21;;;;;;;11.00;5.72;;;;;;;-1.14;89.67;98343.53;5052425;28;20108;-75
2021/01/02 03:05:48;;;;;;;11.18;5.57;;;;;;;-1.19;89.03;98337.81;5052073;28;20025;-75
2021/01/02 03:08:14;;;;;;;11.35;5.95;;;;;;;-1.14;89.81;98337.41;5052121;28;20021;-75
2021/01/02 03:10:42;;;;;;;13.35;6.28;;;;;;;-1.25;89.74;98327.78;5058376;28;20028;-75
2021/01/02 03:13:07;;;;;;;14.63;6.50;;;;;;;-1.20;89.77;98345.94;5073721;28;20029;-75
2021/01/02 03:15:38;;;;;;;10.57;5.68;;;;;;;-1.21;90.23;98330.97;5076328;28;20043;-75
2021/01/02 03:18:03;;;;;;;12.20;6.15;;;;;;;-1.11;89.85;98316.72;5076223;28;20133;-75
2021/01/02 03:20:30;;;;;;;13.98;6.43;;;;;;;-1.00;89.99;98325.50;5074965;28;20017;-75
2021/01/02 03:22:55;;;;;;;15.13;6.72;;;;;;;-0.82;89.96;98346.88;5076050;28;20078;-75
2021/01/02 03:25:20;;;;;;;11.43;6.03;;;;;;;-0.83;90.07;98351.34;5056549;28;20021;-76
2021/01/02 03:27:45;;;;;;;13.30;6.75;;;;;;;-0.83;89.28;98356.66;5054707;28;20059;-75
2021/01/02 03:30:13;;;;;;;13.18;6.63;;;;;;;-0.88;89.43;98354.41;5075413;28;20556;-75
2021/01/02 03:32:39;;;;;;;11.85;6.35;;;;;;;-0.94;89.40;98355.00;5076393;28;20027;-75
2021/01/02 03:35:08;;;;;;;11.82;7.13;;;;;;;-0.88;89.63;98335.00;5075910;28;20020;-76
2021/01/02 03:37:35;;;;;;;12.25;5.78;;;;;;;-0.68;90.09;98351.75;5075797;28;20024;-75
2021/01/02 03:40:00;;;;;;;12.70;6.20;;;;;;;-0.65;89.70;98351.44;5075968;28;20103;-75
2021/01/02 03:42:26;;;;;;;11.80;6.00;;;;;;;-0.69;89.67;98339.44;5076148;28;20099;-74
2021/01/02 03:44:51;;;;;;;11.13;6.22;;;;;;;-0.64;89.17;98347.81;5074800;28;20040;-75
2021/01/02 03:47:17;;;;;;;13.65;6.97;;;;;;;-0.59;89.66;98352.69;5065864;28;20031;-75
2021/01/02 03:49:42;;;;;;;11.68;6.68;;;;;;;-0.63;89.52;98335.34;5055749;28;20074;-75
2021/01/02 03:52:08;;;;;;;11.43;6.03;;;;;;;-0.72;89.32;98324.63;5083454;28;20027;-75
2021/01/02 03:54:34;;;;;;;13.82;6.70;;;;;;;-0.77;89.19;98328.69;5082195;28;20036;-74
2021/01/02 03:57:00;;;;;;;10.95;5.70;;;;;;;-0.74;89.56;98331.88;5073134;28;20170;-75
2021/01/02 03:59:25;;;;;;;13.32;6.30;;;;;;;-0.69;89.65;98339.44;5075771;28;20497;-75
2021/01/02 04:02:00;;;;;;;12.00;6.18;;;;;;;-0.75;89.33;98314.28;5064958;28;20052;-74
2021/01/02 04:04:27;;;;;;;12.05;6.25;;;;;;;-0.60;90.03;98337.72;5066535;28;20052;-74
2021/01/02 04:06:53;;;;;;;14.63;6.47;;;;;;;-0.58;89.75;98338.41;5075557;28;20039;-74
2021/01/02 04:09:27;;;;;;;14.02;6.18;;;;;;;-0.54;89.99;98339.81;5075583;28;20036;-75
2021/01/02 04:11:53;;;;;;;12.23;6.47;;;;;;;-0.63;89.87;98312.28;5075873;28;20025;-74
2021/01/02 04:14:19;;;;;;;15.82;7.45;;;;;;;-0.63;89.55;98312.28;5075022;28;20040;-74
2021/01/02 04:16:44;;;;;;;14.52;7.82;;;;;;;-0.67;89.71;98313.56;5075360;28;20035;-74
2021/01/02 04:19:10;;;;;;;16.73;8.07;;;;;;;-0.45;89.82;98325.66;5081359;28;20099;-75
2021/01/02 04:21:36;;;;;;;14.85;7.65;;;;;;;-0.52;90.00;98309.47;5082527;28;20040;-75
2021/01/02 04:24:02;;;;;;;14.80;7.40;;;;;;;-0.43;89.86;98323.69;5081577;28;20047;-75
2021/01/02 04:26:28;;;;;;;13.93;7.43;;;;;;;-0.32;89.72;98326.16;5084942;28;20040;-74
2021/01/02 04:28:53;;;;;;;16.10;8.23;;;;;;;-0.45;89.87;98310.56;5090653;28;20034;-74
2021/01/02 04:31:19;;;;;;;15.65;8.15;;;;;;;-0.38;90.18;98316.13;5083692;28;20739;-75
2021/01/02 04:33:45;;;;;;;18.02;8.00;;;;;;;-0.42;90.18;98314.72;5091794;28;20028;-75
2021/01/02 04:36:15;;;;;;;13.93;8.23;;;;;;;-0.42;89.56;98319.19;5094729;28;20033;-76
2021/01/02 04:38:41;;;;;;;15.15;7.03;;;;;;;-0.34;89.59;98322.81;5077399;28;20031;-74
2021/01/02 04:41:06;;;;;;;16.23;8.75;;;;;;;-0.29;89.45;98323.22;5082736;28;20027;-74
2021/01/02 04:43:32;;;;;;;14.40;6.80;;;;;;;-0.40;89.24;98295.97;5075211;28;20390;-74
2021/01/02 04:45:58;;;;;;;15.98;6.80;;;;;;;-0.22;89.62;98328.78;5075732;28;20081;-74
2021/01/02 04:48:23;;;;;;;15.80;7.70;;;;;;;-0.29;89.03;98317.03;5077628;28;20470;-74
2021/01/02 04:50:48;;;;;;;16.98;7.82;;;;;;;-0.29;89.11;98309.06;5087690;28;20045;-76
2021/01/02 04:53:14;;;;;;;20.15;9.02;;;;;;;-0.14;88.92;98322.72;5084321;28;20095;-74
2021/01/02 04:55:44;;;;;;;19.88;8.82;;;;;;;-0.23;89.25;98309.34;5091430;28;20032;-74
2021/01/02 04:58:15;;;;;;;23.63;8.93;;;;;;;-0.22;89.66;98312.81;5075412;28;20025;-75
2021/01/02 05:00:41;;;;;;;24.73;9.38;;;;;;;-0.15;89.96;98327.22;5083537;28;20021;-75
2021/01/02 05:03:07;;;;;;;29.77;9.90;;;;;;;-0.13;89.93;98322.59;5087903;28;20029;-76
2021/01/02 05:05:32;;;;;;;27.70;11.18;;;;;;;-0.16;89.64;98319.38;5088228;28;20063;-75
2021/01/02 05:07:58;;;;;;;27.02;9.68;;;;;;;-0.18;89.32;98326.66;5096624;28;20036;-75
2021/01/02 05:10:23;;;;;;;30.50;11.00;;;;;;;-0.17;89.60;98320.38;5090338;28;20031;-76
2021/01/02 05:12:50;;;;;;;20.10;9.23;;;;;;;-0.17;89.28;98345.13;5095566;28;20029;-75
2021/01/02 05:15:15;;;;;;;19.23;8.32;;;;;;;-0.28;90.11;98338.19;5076764;28;20044;-77
2021/01/02 05:17:41;;;;;;;16.70;8.25;;;;;;;-0.32;90.07;98344.75;5089919;28;20076;-75
2021/01/02 05:20:08;;;;;;;19.33;9.30;;;;;;;-0.27;90.08;98350.47;5096812;28;20024;-75
2021/01/02 05:22:38;;;;;;;16.05;8.05;;;;;;;-0.39;89.93;98343.69;5093728;28;20096;-77
2021/01/02 05:25:07;;;;;;;16.58;7.75;;;;;;;-0.31;89.75;98356.25;5096350;28;20001;-75
2021/01/02 05:27:34;;;;;;;16.33;7.65;;;;;;;-0.31;89.55;98358.91;5095437;28;20001;-74
2021/01/02 05:30:18;;;;;;;20.15;8.63;;;;;;;-0.39;89.58;98362.28;5082241;28;20020;-75
2021/01/02 05:32:57;;;;;;;25.75;8.68;;;;;;;-0.46;90.23;98361.19;5097283;28;20016;-75
2021/01/02 05:35:27;;;;;;;20.00;7.85;;;;;;;-0.47;90.28;98359.53;5088315;28;20025;-77
2021/01/02 05:37:53;;;;;;;17.73;7.53;;;;;;;-0.63;90.72;98338.00;5083799;28;20034;-76
2021/01/02 05:40:37;;;;;;;23.27;9.40;;;;;;;-0.62;90.91;98353.00;5093376;28;20095;-75
2021/01/02 05:43:03;;;;;;;28.10;9.52;;;;;;;-0.66;90.92;98355.06;5073690;28;20057;-74
2021/01/02 05:45:29;;;;;;;28.20;9.05;;;;;;;-0.65;91.37;98359.44;5074316;28;20029;-74
2021/01/02 05:48:17;;;;;;;30.13;9.35;;;;;;;-0.73;91.31;98341.53;5077452;28;20111;-72
2021/01/02 05:50:44;;;;;;;24.25;9.50;;;;;;;-0.62;91.34;98355.66;5071369;28;20017;-74
2021/01/02 05:53:20;;;;;;;31.85;8.70;;;;;;;-0.82;91.49;98312.34;5071503;28;20070;-75
2021/01/02 05:55:59;;;;;;;33.95;10.45;;;;;;;-0.93;91.48;98289.44;5076235;28;20032;-75
2021/01/02 05:58:25;;;;;;;35.47;10.15;;;;;;;-0.43;91.56;98360.06;5070157;28;20025;-74
2021/01/02 06:01:02;;;;;;;27.45;9.88;;;;;;;-0.49;91.12;98349.03;5076787;28;20021;-77
2021/01/02 06:03:28;;;;;;;25.02;8.57;;;;;;;-0.44;91.16;98345.94;5074934;28;20033;-76
2021/01/02 06:06:01;;;;;;;26.08;8.57;;;;;;;-0.48;91.44;98340.06;5077419;28;20027;-77
2021/01/02 06:08:31;;;;;;;22.90;8.88;;;;;;;-0.34;91.31;98360.03;5073289;28;20107;-71
2021/01/02 06:11:00;;;;;;;25.67;8.95;;;;;;;-0.35;90.79;98358.34;5076670;28;20040;-73
2021/01/02 06:13:28;;;;;;;31.60;9.00;;;;;;;-0.28;90.83;98370.09;5066635;28;20029;-72
2021/01/02 06:15:56;;;;;;;30.75;9.02;;;;;;;-0.27;90.44;98362.94;5074883;28;20040;-73
2021/01/02 06:18:22;;;;;;;26.38;8.50;;;;;;;-0.50;90.26;98347.38;5074092;28;20043;-71
2021/01/02 06:20:47;;;;;;;27.48;9.35;;;;;;;-0.44;90.44;98348.59;5074305;28;20486;-72
2021/01/02 06:23:19;;;;;;;24.80;8.95;;;;;;;-0.35;90.61;98370.81;5070687;28;20029;-71
2021/01/02 06:25:48;;;;;;;27.58;9.75;;;;;;;-0.33;90.64;98380.31;5070957;28;20449;-73
2021/01/02 06:28:15;;;;;;;31.40;9.50;;;;;;;-0.41;91.08;98347.47;5071642;28;20031;-73
2021/01/02 06:30:41;;;;;;;22.77;8.93;;;;;;;-0.37;91.00;98357.66;5072800;28;20028;-74
2021/01/02 06:33:13;;;;;;;33.85;9.18;;;;;;;-0.38;91.11;98360.47;5070365;28;20027;-73
2021/01/02 06:35:39;;;;;;;39.15;10.02;;;;;;;-0.26;90.84;98369.94;5062848;28;20032;-72
2021/01/02 06:38:05;;;;;;;36.47;10.60;;;;;;;-0.32;91.25;98362.53;5070477;28;20025;-71
2021/01/02 06:40:37;;;;;;;46.33;12.07;;;;;;;-0.22;91.16;98366.00;5092072;28;20096;-77
2021/01/02 06:43:08;;;;;;;31.15;11.82;;;;;;;-0.22;91.18;98366.81;5050798;28;20100;-77
2021/01/02 06:45:36;;;;;;;34.35;11.40;;;;;;;-0.23;91.39;98367.81;5038364;28;20081;-74
2021/01/02 06:48:17;;;;;;;33.40;11.43;;;;;;;-0.17;91.23;98368.22;5062069;28;20024;-72
2021/01/02 06:50:47;;;;;;;38.40;10.88;;;;;;;-0.18;91.10;98359.41;5062098;28;20281;-73
2021/01/02 06:53:25;;;;;;;40.20;11.10;;;;;;;-0.25;91.38;98351.19;5063852;28;20020;-72
2021/01/02 06:56:05;;;;;;;30.63;10.02;;;;;;;-0.22;91.49;98353.53;5071482;28;20021;-73
2021/01/02 06:58:37;;;;;;;32.75;10.20;;;;;;;-0.16;91.22;98361.91;5092811;28;20028;-74
2021/01/02 07:01:04;;;;;;;28.38;9.63;;;;;;;-0.19;91.24;98360.38;5056219;28;20363;-73
2021/01/02 07:03:56;;;;;;;35.28;12.13;;;;;;;-0.24;90.97;98352.00;5071879;28;20028;-73
2021/01/02 07:06:24;;;;;;;32.53;10.60;;;;;;;-0.18;91.27;98359.41;5069356;28;20037;-73
2021/01/02 07:08:52;;;;;;;34.53;12.32;;;;;;;-0.23;91.47;98343.91;5066876;28;20027;-71
2021/01/02 07:11:34;;;;;;;35.22;12.10;;;;;;;-0.23;91.86;98351.88;5078306;28;20166;-74
2021/01/02 07:14:12;;;;;;;36.92;12.93;;;;;;;-0.17;91.79;98347.78;5059579;28;20013;-72
2021/01/02 07:16:52;;;;;;;36.53;12.82;;;;;;;-0.18;91.78;98353.25;5066888;28;20043;-74
2021/01/02 07:19:24;;;;;;;38.50;12.95;;;;;;;-0.16;92.16;98359.25;5065607;28;20037;-71
2021/01/02 07:22:17;;;;;;;39.30;13.25;;;;;;;-0.12;92.05;98365.97;5080226;28;20025;-74
2021/01/02 07:24:46;;;;;;;35.83;12.48;;;;;;;-0.07;91.86;98366.38;5100407;28;20033;-72
2021/01/02 07:27:14;;;;;;;39.45;13.02;;;;;;;-0.23;91.49;98335.94;5071441;28;20025;-70
2021/01/02 07:29:44;;;;;;;38.72;13.57;;;;;;;-0.07;92.08;98364.53;5073150;28;20033;-70
2021/01/02 07:32:09;;;;;;;47.55;14.15;;;;;;;-0.07;91.56;98366.38;5090359;28;20105;-70
2021/01/02 07:34:35;;;;;;;40.58;12.80;;;;;;;-0.03;91.13;98354.44;5072325;28;20116;-71
2021/01/02 07:37:03;;;;;;;48.30;12.95;;;;;;;-0.28;91.64;98327.53;5066886;28;20107;-71
2021/01/02 07:39:28;;;;;;;44.35;13.82;;;;;;;-0.04;91.68;98366.91;5070570;28;20036;-71
2021/01/02 07:41:54;;;;;;;45.95;13.52;;;;;;;-0.17;91.78;98353.09;5065151;28;20017;-71
2021/01/02 07:44:21;;;;;;;42.10;13.35;;;;;;;0.11;91.61;98364.59;5067744;28;20466;-71
2021/01/02 07:46:46;;;;;;;44.70;13.75;;;;;;;-0.05;91.32;98353.78;5070866;28;20059;-70
2021/01/02 07:49:15;;;;;;;49.22;14.35;;;;;;;-0.03;91.69;98354.44;5064181;28;20074;-71
2021/01/02 07:51:41;;;;;;;45.92;13.23;;;;;;;-0.09;91.26;98350.53;5067557;28;20025;-71
2021/01/02 07:54:06;;;;;;;46.90;12.85;;;;;;;-0.01;91.19;98365.75;5066511;28;20357;-71
2021/01/02 07:56:43;;;;;;;47.22;13.68;;;;;;;0.06;91.49;98392.63;5062601;28;20028;-70
2021/01/02 07:59:28;;;;;;;41.17;13.85;;;;;;;0.19;90.95;98382.47;5054599;28;20068;-69
2021/01/02 08:02:09;;;;;;;43.58;13.77;;;;;;;0.07;91.13;98383.66;5069862;28;20023;-73
2021/01/02 08:04:36;;;;;;;50.47;15.20;;;;;;;-0.06;91.38;98376.84;5062889;28;20036;-71
2021/01/02 08:07:06;;;;;;;40.13;14.20;;;;;;;0.14;91.42;98390.06;5079708;28;20092;-70
2021/01/02 08:09:33;;;;;;;46.78;15.68;;;;;;;0.10;91.06;98378.03;5066524;28;20029;-68
2021/01/02 08:12:01;;;;;;;50.95;15.38;;;;;;;0.13;91.10;98377.72;5069610;28;20070;-69
2021/01/02 08:14:30;;;;;;;35.80;14.33;;;;;;;0.21;90.51;98389.34;5074926;28;20359;-66
2021/01/02 08:16:56;;;;;;;39.38;13.75;;;;;;;0.17;91.01;98384.44;5062243;28;20039;-67
2021/01/02 08:19:22;;;;;;;43.30;15.40;;;;;;;0.06;90.74;98380.16;5057013;28;20033;-67
2021/01/02 08:21:47;;;;;;;48.97;15.82;;;;;;;0.04;91.18;98382.13;5075124;28;20029;-69
2021/01/02 08:24:13;;;;;;;44.45;14.93;;;;;;;0.02;91.50;98373.44;5058532;28;20482;-69
2021/01/02 08:26:39;;;;;;;62.85;23.60;;;;;;;0.13;91.12;98378.59;5073897;28;20055;-66
2021/01/02 08:29:04;;;;;;;60.50;20.00;;;;;;;0.24;91.18;98382.00;5069118;28;20082;-69
2021/01/02 08:31:33;;;;;;;43.70;15.57;;;;;;;0.32;91.13;98372.31;5091619;28;20024;-70
2021/01/02 08:34:01;;;;;;;45.65;14.60;;;;;;;0.36;90.34;98379.00;5064429;28;20040;-71
2021/01/02 08:36:27;;;;;;;46.25;14.88;;;;;;;0.38;89.49;98387.69;5060652;28;20044;-71
2021/01/02 08:38:57;;;;;;;50.53;15.07;;;;;;;0.37;89.65;98388.69;5069288;28;20016;-69
2021/01/02 08:41:22;;;;;;;46.70;14.20;;;;;;;0.29;89.60;98387.72;5061540;28;20493;-69
2021/01/02 08:43:50;;;;;;;46.53;13.88;;;;;;;0.32;89.64;98388.28;5070194;28;20087;-71
2021/01/02 08:46:25;;;;;;;42.72;14.50;;;;;;;0.17;89.51;98374.63;5069480;28;20032;-76
2021/01/02 08:48:51;;;;;;;44.25;14.85;;;;;;;0.35;89.78;98365.88;5062568;28;20031;-71
2021/01/02 08:51:27;;;;;;;41.45;13.15;;;;;;;0.63;89.79;98380.81;5075818;28;20048;-71
2021/01/02 08:53:53;;;;;;;47.92;15.70;;;;;;;0.75;89.67;98388.56;5056176;28;20025;-71
2021/01/02 08:56:22;;;;;;;51.78;15.57;;;;;;;0.86;88.87;98401.66;5062181;28;20032;-73
2021/01/02 08:58:47;;;;;;;48.00;14.02;;;;;;;0.70;88.94;98354.41;5070722;28;20029;-71
2021/01/02 09:01:12;;;;;;;45.60;14.55;;;;;;;0.93;88.20;98380.59;5055896;28;20029;-72
2021/01/02 09:03:38;;;;;;;34.78;13.88;;;;;;;0.90;88.04;98378.25;5070179;28;20029;-72
2021/01/02 09:06:20;;;;;;;35.67;14.43;;;;;;;0.98;87.77;98395.13;5062566;28;20028;-71
2021/01/02 09:08:58;;;;;;;34.08;13.63;;;;;;;1.01;88.10;98399.31;5056379;28;20056;-70
2021/01/02 09:11:23;;;;;;;36.15;12.95;;;;;;;1.06;87.93;98397.84;5061928;28;20016;-71
2021/01/02 09:13:49;;;;;;;33.75;13.35;;;;;;;1.19;87.96;98392.13;5059013;28;20032;-71
2021/01/02 09:16:15;;;;;;;31.08;13.10;;;;;;;1.29;86.85;98397.38;5053079;28;20512;-72
2021/01/02 09:18:42;;;;;;;34.47;13.90;;;;;;;1.42;86.47;98389.81;5056885;28;20025;-70
2021/01/02 09:21:10;;;;;;;38.13;14.98;;;;;;;1.54;85.87;98393.88;5053017;28;20029;-72
2021/01/02 09:23:38;;;;;;;40.75;15.40;;;;;;;1.68;85.08;98389.00;5068456;28;20382;-71
2021/01/02 09:26:04;;;;;;;36.13;14.23;;;;;;;1.65;85.88;98386.63;5060397;28;20035;-71
2021/01/02 09:28:41;;;;;;;46.22;15.35;;;;;;;1.59;85.63;98381.94;5055913;28;20116;-71
2021/01/02 09:31:06;;;;;;;41.97;14.32;;;;;;;1.79;85.31;98386.06;5053484;28;20028;-71
2021/01/02 09:33:31;;;;;;;33.13;13.32;;;;;;;1.78;85.28;98376.38;5065567;28;20104;-70
2021/01/02 09:35:56;;;;;;;27.90;12.60;;;;;;;1.81;85.32;98400.09;5071783;28;20024;-72
2021/01/02 09:38:21;;;;;;;28.30;12.52;;;;;;;1.81;84.97;98399.22;5068437;28;20032;-72
2021/01/02 09:40:47;;;;;;;29.90;11.75;;;;;;;1.84;84.77;98390.94;5063236;28;20649;-72
2021/01/02 09:43:14;;;;;;;28.20;11.70;;;;;;;1.87;84.31;98395.94;5074141;28;20032;-71
2021/01/02 09:45:40;;;;;;;21.83;10.98;;;;;;;1.83;84.94;98390.06;5064025;28;20032;-70
2021/01/02 09:48:07;;;;;;;31.52;12.15;;;;;;;1.80;84.99;98379.72;5067732;28;20497;-73
2021/01/02 09:50:33;;;;;;;26.58;12.20;;;;;;;1.80;85.57;98394.91;5065595;28;20582;-72
2021/01/02 09:52:59;;;;;;;26.80;12.05;;;;;;;1.89;84.75;98386.78;5071616;28;20074;-71
2021/01/02 09:55:24;;;;;;;24.33;11.38;;;;;;;1.90;84.74;98393.78;5063521;28;20028;-73
2021/01/02 09:57:50;;;;;;;25.95;11.48;;;;;;;1.86;83.96;98376.44;5076431;28;20031;-74
2021/01/02 10:00:17;;;;;;;23.90;11.75;;;;;;;1.69;84.42;98393.34;5053857;28;20105;-73
2021/01/02 10:02:43;;;;;;;23.10;11.82;;;;;;;1.75;84.29;98392.69;5063660;28;20103;-71
2021/01/02 10:05:09;;;;;;;24.60;10.98;;;;;;;1.75;84.96;98398.88;5069948;28;20161;-69
2021/01/02 10:07:34;;;;;;;21.77;10.88;;;;;;;1.74;84.46;98391.03;5066508;28;20081;-73
2021/01/02 10:09:59;;;;;;;20.25;10.68;;;;;;;1.80;83.56;98401.06;5059660;28;20111;-68
2021/01/02 10:12:25;;;;;;;23.88;10.30;;;;;;;1.95;83.69;98402.16;5084693;28;20016;-70
2021/01/02 10:14:50;;;;;;;21.95;10.65;;;;;;;2.00;83.88;98400.84;5070422;28;20649;-71
2021/01/02 10:17:17;;;;;;;21.27;10.38;;;;;;;2.07;83.55;98393.88;5073301;28;20036;-72
2021/01/02 10:19:47;;;;;;;23.83;11.20;;;;;;;2.16;82.52;98399.09;5066329;28;20103;-77
2021/01/02 10:22:13;;;;;;;;;;;;;;;2.28;81.77;98398.78;5053418;28;20059;-79
2021/01/02 10:24:38;;;;;;;21.08;10.20;;;;;;;2.33;82.15;98384.00;5066981;28;20445;-81
2021/01/02 10:27:06;;;;;;;24.77;11.02;;;;;;;2.35;82.30;98384.66;5066983;28;20108;-70
2021/01/02 10:29:31;;;;;;;23.45;11.25;;;;;;;2.55;81.46;98395.91;5060566;28;20028;-70
2021/01/02 10:32:01;;;;;;;18.63;9.98;;;;;;;2.71;80.79;98402.28;5061229;28;20040;-71
2021/01/02 10:34:27;;;;;;;20.70;10.50;;;;;;;2.89;81.11;98386.97;5067566;28;20020;-71
2021/01/02 10:36:52;;;;;;;22.48;11.65;;;;;;;3.07;79.49;98384.16;5062393;28;20086;-71
2021/01/02 10:39:18;;;;;;;21.23;11.02;;;;;;;3.30;79.08;98362.91;5063458;28;20032;-72
2021/01/02 10:41:46;;;;;;;21.30;11.18;;;;;;;3.63;78.13;98369.06;5064549;28;20103;-72
2021/01/02 10:44:11;;;;;;;21.05;11.48;;;;;;;3.79;77.70;98372.72;5072439;28;20367;-75
2021/01/02 10:46:36;;;;;;;18.65;10.05;;;;;;;3.84;77.19;98359.69;5066425;28;20021;-76
2021/01/02 10:49:01;;;;;;;21.15;11.15;;;;;;;3.56;77.39;98349.34;5057600;28;20032;-75
2021/01/02 10:51:27;;;;;;;20.52;10.77;;;;;;;3.62;78.13;98361.25;5067810;28;20033;-72
2021/01/02 10:53:52;;;;;;;22.58;11.75;;;;;;;3.19;78.01;98339.22;5064560;28;20024;-73
2021/01/02 10:56:19;;;;;;;19.23;10.18;;;;;;;3.10;78.56;98342.91;5064992;28;20043;-77
2021/01/02 10:58:45;;;;;;;21.13;10.02;;;;;;;2.95;79.55;98337.38;5057166;28;20116;-75
2021/01/02 11:01:11;;;;;;;20.55;10.75;;;;;;;2.96;78.63;98331.88;5071318;28;20150;-76
2021/01/02 11:03:37;;;;;;;18.13;9.88;;;;;;;2.94;78.47;98339.22;5062001;28;20103;-76
2021/01/02 11:06:08;;;;;;;18.00;9.90;;;;;;;2.89;78.86;98336.22;5056668;28;20812;-75
2021/01/02 11:08:37;;;;;;;19.30;10.23;;;;;;;2.93;79.41;98339.38;5058090;28;20036;-75
2021/01/02 11:11:04;;;;;;;19.17;9.95;;;;;;;2.97;78.90;98343.41;5069544;28;20036;-76
2021/01/02 11:13:29;;;;;;;18.75;9.98;;;;;;;3.03;78.43;98337.38;5066260;28;20086;-75
2021/01/02 11:15:55;;;;;;;19.27;10.75;;;;;;;2.99;78.78;98338.72;5063403;28;20437;-75
2021/01/02 11:18:20;;;;;;;20.05;9.75;;;;;;;3.00;78.43;98317.16;5068712;28;20024;-75
2021/01/02 11:20:47;;;;;;;18.00;9.98;;;;;;;2.89;78.85;98317.50;5068713;28;20035;-75
2021/01/02 11:23:18;;;;;;;20.13;10.20;;;;;;;3.08;78.21;98324.34;5069096;28;20024;-75
2021/01/02 11:25:45;;;;;;;19.55;10.13;;;;;;;3.11;78.74;98316.00;5069420;28;20383;-75
2021/01/02 11:28:11;;;;;;;23.42;9.68;;;;;;;3.04;78.73;98288.28;5062625;28;20029;-76
2021/01/02 11:30:36;;;;;;;19.45;9.63;;;;;;;3.08;79.23;98301.13;5068365;28;20073;-76
2021/01/02 11:33:01;;;;;;;18.70;9.98;;;;;;;3.03;79.65;98294.63;5058985;28;20036;-75
2021/01/02 11:35:27;;;;;;;21.27;10.43;;;;;;;3.16;79.08;98296.78;5063298;28;20481;-76
2021/01/02 11:37:52;;;;;;;22.83;10.65;;;;;;;3.19;79.09;98294.59;5069839;28;20028;-77